Time;durP1;ratioP1;P1;durP2;ratioP2;P2;SDS_P1;SDS_P2;PMS_P1;PMS_P2;Temp;Humidity;BMP_temperature;BMP_pressure;BME280_temperature;BME280_humidity;BME280_pressure;Samples;Min_cycle;Max_cycle;Signal;HPM_P1;HPM_P2
2022/07/07 00:00:21;;;;;;;0.00;0.00;;;;;;;;;;4911899;29;20510;-62
2022/07/07 00:03:08;;;;;;;0.00;0.00;;;;;;;;;;4911008;29;20032;-62
2022/07/07 00:05:40;;;;;;;0.00;0.00;;;;;;;;;;4910618;29;20028;-62
2022/07/07 00:08:05;;;;;;;0.00;0.00;;;;;;;;;;4910125;29;20032;-62
2022/07/07 00:10:30;;;;;;;0.00;0.00;;;;;;;;;;4910949;29;20035;-61
2022/07/07 00:12:56;;;;;;;0.00;0.00;;;;;;;;;;4913328;29;20024;-61
2022/07/07 00:15:21;;;;;;;0.00;0.00;;;;;;;;;;4913142;29;21241;-61
2022/07/07 00:17:49;;;;;;;0.00;0.00;;;;;;;;;;4912526;29;20032;-61
2022/07/07 00:20:14;;;;;;;0.00;0.00;;;;;;;;;;4910542;29;20025;-61
2022/07/07 00:22:39;;;;;;;0.00;0.00;;;;;;;;;;4910556;29;20097;-62
2022/07/07 00:25:05;;;;;;;0.00;0.00;;;;;;;;;;4910246;29;20496;-62
2022/07/07 00:27:40;;;;;;;0.00;0.00;;;;;;;;;;4913386;29;20644;-62
2022/07/07 00:30:05;;;;;;;0.00;0.00;;;;;;;;;;4909359;29;20020;-62
2022/07/07 00:32:33;;;;;;;0.00;0.00;;;;;;;;;;4910953;29;20159;-62
2022/07/07 00:35:04;;;;;;;0.00;0.00;;;;;;;;;;4910066;29;20032;-61
2022/07/07 00:37:29;;;;;;;5.70;5.57;;;;;;;;;;4909360;29;20567;-61
2022/07/07 00:40:03;;;;;;;0.00;0.00;;;;;;;;;;4913704;29;20032;-61
2022/07/07 00:42:31;;;;;;;0.00;0.00;;;;;;;;;;4912971;29;20475;-61
2022/07/07 00:44:56;;;;;;;0.00;0.00;;;;;;;;;;4911964;29;20027;-61
2022/07/07 00:47:21;;;;;;;0.00;0.00;;;;;;;;;;4911203;29;20028;-61
2022/07/07 00:49:46;;;;;;;0.00;0.00;;;;;;;;;;4909767;29;20044;-62
2022/07/07 00:52:12;;;;;;;0.00;0.00;;;;;;;;;;4909013;29;20047;-62
2022/07/07 00:54:37;;;;;;;0.00;0.00;;;;;;;;;;4913598;29;20020;-62
2022/07/07 00:57:06;;;;;;;0.00;0.00;;;;;;;;;;4911824;29;20091;-61
2022/07/07 00:59:33;;;;;;;0.00;0.00;;;;;;;;;;4911116;29;20367;-62
2022/07/07 01:02:01;;;;;;;0.00;0.00;;;;;;;;;;4907627;29;20474;-61
2022/07/07 01:04:26;;;;;;;0.00;0.00;;;;;;;;;;4910413;29;20028;-62
2022/07/07 01:06:52;;;;;;;0.00;0.00;;;;;;;;;;4909869;29;20441;-62
2022/07/07 01:09:17;;;;;;;0.00;0.00;;;;;;;;;;4913727;29;20036;-62
2022/07/07 01:11:51;;;;;;;0.00;0.00;;;;;;;;;;4912637;29;20395;-62
2022/07/07 01:14:16;;;;;;;0.00;0.00;;;;;;;;;;4911443;29;20043;-62
2022/07/07 01:16:42;;;;;;;0.00;0.00;;;;;;;;;;4910714;29;20028;-62
2022/07/07 01:19:07;;;;;;;0.00;0.00;;;;;;;;;;4909118;29;20107;-62
2022/07/07 01:21:35;;;;;;;0.00;0.00;;;;;;;;;;4909075;29;20020;-64
2022/07/07 01:24:00;;;;;;;0.00;0.00;;;;;;;;;;4911278;29;20076;-62
2022/07/07 01:26:26;;;;;;;0.00;0.00;;;;;;;;;;4912468;29;20032;-62
2022/07/07 01:28:54;;;;;;;0.00;0.00;;;;;;;;;;4910885;29;20088;-62
2022/07/07 01:31:20;;;;;;;0.00;0.00;;;;;;;;;;4910999;29;20020;-62
2022/07/07 01:33:45;;;;;;;0.00;0.00;;;;;;;;;;4909707;29;20562;-62
2022/07/07 01:36:13;;;;;;;0.00;0.00;;;;;;;;;;4909086;29;20042;-62
2022/07/07 01:38:38;;;;;;;0.00;0.00;;;;;;;;;;4911599;29;20263;-61
2022/07/07 01:41:03;;;;;;;0.00;0.00;;;;;;;;;;4911758;29;20025;-62
2022/07/07 01:43:29;;;;;;;0.00;0.00;;;;;;;;;;4911581;29;20016;-62
2022/07/07 01:45:54;;;;;;;0.00;0.00;;;;;;;;;;4910153;29;20074;-62
2022/07/07 01:48:19;;;;;;;0.00;0.00;;;;;;;;;;4910050;29;20032;-62
2022/07/07 01:50:44;;;;;;;0.00;0.00;;;;;;;;;;4908962;29;20487;-61
2022/07/07 01:53:10;;;;;;;0.00;0.00;;;;;;;;;;4912590;29;20628;-61
2022/07/07 01:55:35;;;;;;;0.00;0.00;;;;;;;;;;4913216;29;20079;-61
2022/07/07 01:58:00;;;;;;;0.00;0.00;;;;;;;;;;4911483;29;20072;-61
2022/07/07 02:00:25;;;;;;;0.00;0.00;;;;;;;;;;4912003;29;20033;-61
2022/07/07 02:02:51;;;;;;;0.00;0.00;;;;;;;;;;4912466;29;20078;-61
2022/07/07 02:05:16;;;;;;;0.00;0.00;;;;;;;;;;4912197;29;20526;-61
2022/07/07 02:07:41;;;;;;;0.00;0.00;;;;;;;;;;4912216;29;20110;-61
2022/07/07 02:10:07;;;;;;;0.00;0.00;;;;;;;;;;4912098;29;20051;-61
2022/07/07 02:12:32;;;;;;;0.00;0.00;;;;;;;;;;4914203;29;20028;-61
2022/07/07 02:14:58;;;;;;;0.00;0.00;;;;;;;;;;4916519;29;20048;-61
2022/07/07 02:17:23;;;;;;;0.00;0.00;;;;;;;;;;4915833;29;20031;-61
2022/07/07 02:19:49;;;;;;;0.00;0.00;;;;;;;;;;4914873;29;20029;-61
2022/07/07 02:22:14;;;;;;;0.00;0.00;;;;;;;;;;4915689;29;20031;-61
2022/07/07 02:24:39;;;;;;;0.70;0.70;;;;;;;;;;4915965;29;20012;-61
2022/07/07 02:27:04;;;;;;;0.00;0.00;;;;;;;;;;4915557;29;20028;-61
2022/07/07 02:29:29;;;;;;;0.00;0.00;;;;;;;;;;4916581;29;20260;-60
2022/07/07 02:31:55;;;;;;;0.00;0.00;;;;;;;;;;4915318;29;20723;-60
2022/07/07 02:34:20;;;;;;;0.00;0.00;;;;;;;;;;4916669;29;20040;-60
2022/07/07 02:36:46;;;;;;;0.00;0.00;;;;;;;;;;4912214;29;20037;-61
2022/07/07 02:39:11;;;;;;;0.00;0.00;;;;;;;;;;4915909;29;20171;-62
2022/07/07 02:41:36;;;;;;;0.00;0.00;;;;;;;;;;4914856;29;20032;-62
2022/07/07 02:44:01;;;;;;;0.00;0.00;;;;;;;;;;4915869;29;20023;-62
2022/07/07 02:46:28;;;;;;;0.00;0.00;;;;;;;;;;4914847;29;20029;-62
2022/07/07 02:48:53;;;;;;;0.00;0.00;;;;;;;;;;4916082;29;20043;-62
2022/07/07 02:51:19;;;;;;;0.10;0.10;;;;;;;;;;4915441;29;20024;-62
2022/07/07 02:53:44;;;;;;;0.00;0.00;;;;;;;;;;4914538;29;20616;-62
2022/07/07 02:56:09;;;;;;;0.00;0.00;;;;;;;;;;4914580;29;20335;-62
2022/07/07 02:58:34;;;;;;;0.00;0.00;;;;;;;;;;4916482;29;20023;-62
2022/07/07 03:01:00;;;;;;;0.00;0.00;;;;;;;;;;4915396;29;20043;-62
2022/07/07 03:03:25;;;;;;;0.00;0.00;;;;;;;;;;4915837;29;20123;-62
2022/07/07 03:05:50;;;;;;;0.00;0.00;;;;;;;;;;4916182;29;20062;-62
2022/07/07 03:08:16;;;;;;;0.00;0.00;;;;;;;;;;4913981;29;20032;-61
2022/07/07 03:10:41;;;;;;;0.00;0.00;;;;;;;;;;4915955;29;20039;-61
2022/07/07 03:13:06;;;;;;;0.20;0.20;;;;;;;;;;4915212;29;20446;-61
2022/07/07 03:15:31;;;;;;;0.00;0.00;;;;;;;;;;4915805;29;20063;-62
2022/07/07 03:17:57;;;;;;;0.00;0.00;;;;;;;;;;4913090;29;20497;-63
2022/07/07 03:20:22;;;;;;;0.00;0.00;;;;;;;;;;4914471;29;20028;-62
2022/07/07 03:22:47;;;;;;;0.00;0.00;;;;;;;;;;4913884;29;20405;-61
2022/07/07 03:25:13;;;;;;;0.00;0.00;;;;;;;;;;4896652;29;20067;-62
2022/07/07 03:27:38;;;;;;;0.00;0.00;;;;;;;;;;4915184;29;20027;-61
2022/07/07 03:30:05;;;;;;;0.00;0.00;;;;;;;;;;4915048;29;20482;-61
2022/07/07 03:32:30;;;;;;;0.00;0.00;;;;;;;;;;4914470;29;20206;-61
2022/07/07 03:34:55;;;;;;;0.00;0.00;;;;;;;;;;4915050;29;20044;-61
2022/07/07 03:37:21;;;;;;;0.00;0.00;;;;;;;;;;4915560;29;20035;-62
2022/07/07 03:39:46;;;;;;;0.00;0.00;;;;;;;;;;4915787;29;20075;-62
2022/07/07 03:42:11;;;;;;;0.00;0.00;;;;;;;;;;4914844;29;20052;-62
2022/07/07 03:44:36;;;;;;;0.00;0.00;;;;;;;;;;4915405;29;20279;-62
2022/07/07 03:47:03;;;;;;;0.20;0.20;;;;;;;;;;4914513;29;20099;-62
2022/07/07 03:49:29;;;;;;;0.00;0.00;;;;;;;;;;4915298;29;20035;-62
2022/07/07 03:51:54;;;;;;;0.00;0.00;;;;;;;;;;4914454;29;20072;-62
2022/07/07 03:54:19;;;;;;;0.00;0.00;;;;;;;;;;4914625;29;20024;-62
2022/07/07 03:56:44;;;;;;;0.00;0.00;;;;;;;;;;4915295;29;20036;-62
2022/07/07 03:59:09;;;;;;;0.00;0.00;;;;;;;;;;4914061;29;20043;-62
2022/07/07 04:01:36;;;;;;;0.00;0.00;;;;;;;;;;4915026;29;20031;-62
2022/07/07 04:04:01;;;;;;;0.00;0.00;;;;;;;;;;4914681;29;20032;-62
2022/07/07 04:06:30;;;;;;;0.00;0.00;;;;;;;;;;4915118;29;20047;-62
2022/07/07 04:08:55;;;;;;;0.10;0.10;;;;;;;;;;4915078;29;20385;-62
2022/07/07 04:11:20;;;;;;;0.00;0.00;;;;;;;;;;4914245;29;20024;-62
2022/07/07 04:13:45;;;;;;;0.00;0.00;;;;;;;;;;4913556;29;20036;-61
2022/07/07 04:16:11;;;;;;;1.98;0.43;;;;;;;;;;4914207;29;20034;-61
2022/07/07 04:18:36;;;;;;;0.00;0.00;;;;;;;;;;4914750;29;20032;-61
2022/07/07 04:21:02;;;;;;;0.00;0.00;;;;;;;;;;4910872;29;20028;-61
2022/07/07 04:23:27;;;;;;;0.00;0.00;;;;;;;;;;4914833;29;20028;-61
2022/07/07 04:25:53;;;;;;;0.00;0.00;;;;;;;;;;4914560;29;20083;-61
2022/07/07 04:28:18;;;;;;;0.00;0.00;;;;;;;;;;4914192;29;20040;-60
2022/07/07 04:30:43;;;;;;;0.00;0.00;;;;;;;;;;4914319;29;20050;-61
2022/07/07 04:33:09;;;;;;;0.00;0.00;;;;;;;;;;4913714;29;20044;-61
2022/07/07 04:35:34;;;;;;;0.00;0.00;;;;;;;;;;4914337;29;20470;-62
2022/07/07 04:37:59;;;;;;;0.00;0.00;;;;;;;;;;4913755;29;20035;-61
2022/07/07 04:40:24;;;;;;;0.00;0.00;;;;;;;;;;4914390;29;20116;-61
2022/07/07 04:42:49;;;;;;;0.00;0.00;;;;;;;;;;4914282;29;20256;-61
2022/07/07 04:45:15;;;;;;;0.00;0.00;;;;;;;;;;4913825;29;20080;-61
2022/07/07 04:47:40;;;;;;;0.00;0.00;;;;;;;;;;4914305;29;20028;-60
2022/07/07 04:50:07;;;;;;;0.00;0.00;;;;;;;;;;4912960;29;20032;-60
2022/07/07 04:52:32;;;;;;;0.00;0.00;;;;;;;;;;4914374;29;20386;-61
2022/07/07 04:54:57;;;;;;;0.00;0.00;;;;;;;;;;4914023;29;20028;-61
2022/07/07 04:57:23;;;;;;;0.00;0.00;;;;;;;;;;4913549;29;20031;-61
2022/07/07 04:59:48;;;;;;;0.00;0.00;;;;;;;;;;4913689;29;20031;-61
2022/07/07 05:02:13;;;;;;;0.00;0.00;;;;;;;;;;4911654;29;20095;-61
2022/07/07 05:04:38;;;;;;;0.00;0.00;;;;;;;;;;4914064;29;20028;-61
2022/07/07 05:07:04;;;;;;;0.00;0.00;;;;;;;;;;4913388;29;20625;-61
2022/07/07 05:09:29;;;;;;;0.00;0.00;;;;;;;;;;4913753;29;20095;-61
2022/07/07 05:11:54;;;;;;;0.00;0.00;;;;;;;;;;4913863;29;20507;-61
2022/07/07 05:14:20;;;;;;;0.00;0.00;;;;;;;;;;4913264;29;20260;-61
2022/07/07 05:16:45;;;;;;;0.00;0.00;;;;;;;;;;4913874;29;20083;-63
2022/07/07 05:19:10;;;;;;;0.00;0.00;;;;;;;;;;4912557;29;20781;-63
2022/07/07 05:21:35;;;;;;;0.00;0.00;;;;;;;;;;4913607;29;20024;-63
2022/07/07 05:24:00;;;;;;;0.00;0.00;;;;;;;;;;4912914;29;20028;-62
2022/07/07 05:26:26;;;;;;;0.00;0.00;;;;;;;;;;4913661;29;20039;-60
2022/07/07 05:28:51;;;;;;;0.00;0.00;;;;;;;;;;4913782;29;20128;-61
2022/07/07 05:31:16;;;;;;;0.00;0.00;;;;;;;;;;4912828;29;20028;-61
2022/07/07 05:33:41;;;;;;;0.00;0.00;;;;;;;;;;4913095;29;20055;-61
2022/07/07 05:36:07;;;;;;;0.00;0.00;;;;;;;;;;4913016;29;20486;-61
2022/07/07 05:38:32;;;;;;;0.00;0.00;;;;;;;;;;4913888;29;20012;-61
2022/07/07 05:40:58;;;;;;;0.00;0.00;;;;;;;;;;4913381;29;20389;-61
2022/07/07 05:43:23;;;;;;;0.00;0.00;;;;;;;;;;4913063;29;20418;-62
2022/07/07 05:45:48;;;;;;;0.00;0.00;;;;;;;;;;4913101;29;20020;-60
2022/07/07 05:48:14;;;;;;;0.00;0.00;;;;;;;;;;4911088;29;20028;-62
2022/07/07 05:50:39;;;;;;;0.00;0.00;;;;;;;;;;4913129;29;20024;-59
2022/07/07 05:53:04;;;;;;;0.00;0.00;;;;;;;;;;4913006;29;20035;-60
2022/07/07 05:55:29;;;;;;;0.35;0.32;;;;;;;;;;4912901;29;20024;-60
2022/07/07 05:57:55;;;;;;;0.00;0.00;;;;;;;;;;4910721;29;20541;-59
2022/07/07 06:00:20;;;;;;;0.00;0.00;;;;;;;;;;4912409;29;20031;-59
2022/07/07 06:02:45;;;;;;;0.00;0.00;;;;;;;;;;4913489;29;20020;-59
2022/07/07 06:05:11;;;;;;;0.00;0.00;;;;;;;;;;4912688;29;20056;-59
2022/07/07 06:07:36;;;;;;;0.00;0.00;;;;;;;;;;4913054;29;20036;-60
2022/07/07 06:10:02;;;;;;;0.00;0.00;;;;;;;;;;4912853;29;20052;-60
2022/07/07 06:12:27;;;;;;;0.00;0.00;;;;;;;;;;4912420;29;20703;-61
2022/07/07 06:14:52;;;;;;;0.00;0.00;;;;;;;;;;4912743;29;20032;-60
2022/07/07 06:17:17;;;;;;;0.00;0.00;;;;;;;;;;4911502;29;20283;-61
2022/07/07 06:19:43;;;;;;;0.00;0.00;;;;;;;;;;4912849;29;20028;-61
2022/07/07 06:22:08;;;;;;;0.00;0.00;;;;;;;;;;4911389;29;20032;-61
2022/07/07 06:24:33;;;;;;;0.00;0.00;;;;;;;;;;4912804;29;20020;-62
2022/07/07 06:26:58;;;;;;;0.00;0.00;;;;;;;;;;4911409;29;20312;-61
2022/07/07 06:29:24;;;;;;;0.00;0.00;;;;;;;;;;4912296;29;20028;-61
2022/07/07 06:31:49;;;;;;;0.40;0.40;;;;;;;;;;4912647;29;20037;-60
2022/07/07 06:34:14;;;;;;;0.00;0.00;;;;;;;;;;4912137;29;20035;-61
2022/07/07 06:36:39;;;;;;;0.00;0.00;;;;;;;;;;4912403;29;20028;-61
2022/07/07 06:39:05;;;;;;;0.93;0.47;;;;;;;;;;4912112;29;20026;-61
2022/07/07 06:41:37;;;;;;;0.00;0.00;;;;;;;;;;4912788;29;20161;-61
2022/07/07 06:44:05;;;;;;;0.00;0.00;;;;;;;;;;4911922;29;20509;-61
2022/07/07 06:46:31;;;;;;;0.75;0.65;;;;;;;;;;4912496;29;20032;-61
2022/07/07 06:48:56;;;;;;;0.00;0.00;;;;;;;;;;4910285;29;20036;-61
2022/07/07 06:51:22;;;;;;;0.00;0.00;;;;;;;;;;4911082;29;20028;-61
2022/07/07 06:53:47;;;;;;;0.00;0.00;;;;;;;;;;4912882;29;20028;-61
2022/07/07 06:56:13;;;;;;;0.00;0.00;;;;;;;;;;4911286;29;20516;-60
2022/07/07 06:58:38;;;;;;;0.00;0.00;;;;;;;;;;4913699;29;20047;-59
2022/07/07 07:01:03;;;;;;;0.00;0.00;;;;;;;;;;4915652;29;20359;-60
2022/07/07 07:03:28;;;;;;;0.17;0.17;;;;;;;;;;4916156;29;20091;-60
2022/07/07 07:05:54;;;;;;;0.00;0.00;;;;;;;;;;4916209;29;20096;-61
2022/07/07 07:08:19;;;;;;;0.00;0.00;;;;;;;;;;4915503;29;20032;-62
2022/07/07 07:10:44;;;;;;;0.00;0.00;;;;;;;;;;4916113;29;20141;-61
2022/07/07 07:13:09;;;;;;;0.10;0.10;;;;;;;;;;4914280;29;20079;-62
2022/07/07 07:15:35;;;;;;;0.00;0.00;;;;;;;;;;4915438;29;20027;-61
2022/07/07 07:18:00;;;;;;;5.75;1.10;;;;;;;;;;4916061;29;20020;-61
2022/07/07 07:20:25;;;;;;;0.00;0.00;;;;;;;;;;4898268;29;20028;-61
2022/07/07 07:22:51;;;;;;;0.00;0.00;;;;;;;;;;4915789;29;20059;-62
2022/07/07 07:25:17;;;;;;;0.00;0.00;;;;;;;;;;4915589;29;20448;-62
2022/07/07 07:27:42;;;;;;;0.00;0.00;;;;;;;;;;4915151;29;20382;-62
2022/07/07 07:30:08;;;;;;;0.00;0.00;;;;;;;;;;4913645;29;20036;-61
2022/07/07 07:32:33;;;;;;;6.25;1.27;;;;;;;;;;4915102;29;20706;-61
2022/07/07 07:34:58;;;;;;;0.00;0.00;;;;;;;;;;4913694;29;20058;-61
2022/07/07 07:37:23;;;;;;;0.00;0.00;;;;;;;;;;4912643;29;20032;-61
2022/07/07 07:39:49;;;;;;;0.00;0.00;;;;;;;;;;4912559;29;20043;-61
2022/07/07 07:42:14;;;;;;;0.00;0.00;;;;;;;;;;4913193;29;20024;-61
2022/07/07 07:47:25;;;;;;;0.00;0.00;;;;;;;;;;4915060;29;20175;-61
2022/07/07 07:49:51;;;;;;;0.00;0.00;;;;;;;;;;4915142;29;20526;-61
2022/07/07 07:52:16;;;;;;;0.03;0.03;;;;;;;;;;4914266;29;20414;-61
2022/07/07 07:54:41;;;;;;;0.13;0.13;;;;;;;;;;4913951;29;20390;-61
2022/07/07 07:57:06;;;;;;;0.00;0.00;;;;;;;;;;4913999;29;20028;-61
2022/07/07 07:59:31;;;;;;;0.00;0.00;;;;;;;;;;4894611;29;20269;-61
2022/07/07 08:01:57;;;;;;;0.00;0.00;;;;;;;;;;4911352;29;20036;-61
2022/07/07 08:04:22;;;;;;;0.82;0.82;;;;;;;;;;4910926;29;20477;-62
2022/07/07 08:06:47;;;;;;;0.00;0.00;;;;;;;;;;4910903;29;20039;-61
2022/07/07 08:09:12;;;;;;;0.05;0.05;;;;;;;;;;4893800;29;20036;-62
2022/07/07 08:11:48;;;;;;;0.00;0.00;;;;;;;;;;4909535;29;20020;-62
2022/07/07 08:14:18;;;;;;;0.45;0.45;;;;;;;;;;4910485;29;20104;-61
2022/07/07 08:17:04;;;;;;;0.05;0.05;;;;;;;;;;4910232;29;20039;-61
2022/07/07 08:19:32;;;;;;;0.00;0.00;;;;;;;;;;4909653;29;20054;-62
2022/07/07 08:21:57;;;;;;;0.00;0.00;;;;;;;;;;4910097;29;20028;-62
2022/07/07 08:24:22;;;;;;;0.10;0.10;;;;;;;;;;4910720;29;20144;-62
2022/07/07 08:26:53;;;;;;;0.00;0.00;;;;;;;;;;4910784;29;20493;-62
2022/07/07 08:29:23;;;;;;;0.00;0.00;;;;;;;;;;4907984;29;20107;-62
2022/07/07 08:31:52;;;;;;;0.00;0.00;;;;;;;;;;4908309;29;20394;-61
2022/07/07 08:34:17;;;;;;;0.80;0.80;;;;;;;;;;4910140;29;20036;-61
2022/07/07 08:36:42;;;;;;;0.00;0.00;;;;;;;;;;4910396;29;20043;-62
2022/07/07 08:39:13;;;;;;;0.00;0.00;;;;;;;;;;4909529;29;20055;-62
2022/07/07 08:41:39;;;;;;;0.00;0.00;;;;;;;;;;4909030;29;20028;-63
2022/07/07 08:44:08;;;;;;;0.00;0.00;;;;;;;;;;4910486;29;20489;-62
2022/07/07 08:46:36;;;;;;;0.32;0.32;;;;;;;;;;4910597;29;20848;-63
2022/07/07 08:49:07;;;;;;;0.00;0.00;;;;;;;;;;4911387;29;20116;-62
2022/07/07 08:51:40;;;;;;;0.08;0.08;;;;;;;;;;4913279;29;20036;-62
2022/07/07 08:54:15;;;;;;;0.20;0.20;;;;;;;;;;4912855;29;20032;-62
2022/07/07 08:56:44;;;;;;;0.32;0.32;;;;;;;;;;4913941;29;20034;-62
2022/07/07 08:59:10;;;;;;;0.40;0.40;;;;;;;;;;4913269;29;20071;-59
2022/07/07 09:01:36;;;;;;;1.55;0.35;;;;;;;;;;4914361;29;20354;-59
2022/07/07 09:04:01;;;;;;;1.17;0.75;;;;;;;;;;4913975;29;20032;-58
2022/07/07 09:06:27;;;;;;;0.00;0.00;;;;;;;;;;4913258;29;20402;-59
2022/07/07 09:08:53;;;;;;;7.68;0.20;;;;;;;;;;4910286;29;20092;-58
2022/07/07 09:11:30;;;;;;;0.77;0.77;;;;;;;;;;4910083;29;20031;-58
2022/07/07 09:14:15;;;;;;;6.93;0.88;;;;;;;;;;4909753;29;20028;-59
2022/07/07 09:16:40;;;;;;;0.00;0.00;;;;;;;;;;4909976;29;20024;-58
2022/07/07 09:19:26;;;;;;;1.13;1.13;;;;;;;;;;4910615;29;20028;-58
2022/07/07 09:21:54;;;;;;;0.00;0.00;;;;;;;;;;4912428;29;20044;-59
2022/07/07 09:24:19;;;;;;;0.00;0.00;;;;;;;;;;4913887;29;20012;-58
2022/07/07 09:26:45;;;;;;;0.00;0.00;;;;;;;;;;4914308;29;20054;-59
2022/07/07 09:29:14;;;;;;;0.00;0.00;;;;;;;;;;4913588;29;20028;-59
2022/07/07 09:32:01;;;;;;;0.10;0.10;;;;;;;;;;4913631;29;20035;-59
2022/07/07 09:34:27;;;;;;;0.25;0.25;;;;;;;;;;4911702;29;20035;-59
2022/07/07 09:39:41;;;;;;;0.10;0.10;;;;;;;;;;4913546;29;20035;-58
2022/07/07 09:42:21;;;;;;;0.00;0.00;;;;;;;;;;4913287;29;20031;-59
2022/07/07 09:44:50;;;;;;;0.00;0.00;;;;;;;;;;4913442;29;20031;-59
2022/07/07 09:47:15;;;;;;;0.00;0.00;;;;;;;;;;4912881;29;20024;-59
2022/07/07 09:49:56;;;;;;;0.00;0.00;;;;;;;;;;4913053;29;20039;-59
2022/07/07 09:52:21;;;;;;;0.00;0.00;;;;;;;;;;4912577;29;20103;-59
2022/07/07 09:55:08;;;;;;;0.00;0.00;;;;;;;;;;4913117;29;20073;-59
2022/07/07 09:57:33;;;;;;;0.00;0.00;;;;;;;;;;4910873;29;20164;-58
2022/07/07 09:59:58;;;;;;;0.00;0.00;;;;;;;;;;4911553;29;20099;-58
2022/07/07 10:02:25;;;;;;;0.00;0.00;;;;;;;;;;4912274;29;20032;-58
2022/07/07 10:04:52;;;;;;;0.00;0.00;;;;;;;;;;4913303;29;20042;-60
2022/07/07 10:07:24;;;;;;;0.00;0.00;;;;;;;;;;4909436;29;20032;-60
2022/07/07 10:09:51;;;;;;;0.00;0.00;;;;;;;;;;4911862;29;20347;-59
2022/07/07 10:12:19;;;;;;;0.00;0.00;;;;;;;;;;4912820;29;20494;-59
2022/07/07 10:14:45;;;;;;;0.00;0.00;;;;;;;;;;4908322;29;20398;-59
2022/07/07 10:17:11;;;;;;;0.00;0.00;;;;;;;;;;4910844;29;20043;-60
2022/07/07 10:19:36;;;;;;;0.00;0.00;;;;;;;;;;4911563;29;20030;-60
2022/07/07 10:22:03;;;;;;;0.00;0.00;;;;;;;;;;4913121;29;20378;-59
2022/07/07 10:24:31;;;;;;;0.00;0.00;;;;;;;;;;4907197;29;20025;-58
2022/07/07 10:26:57;;;;;;;0.00;0.00;;;;;;;;;;4911931;29;20039;-58
2022/07/07 10:29:41;;;;;;;0.00;0.00;;;;;;;;;;4912338;29;20363;-60
2022/07/07 10:32:17;;;;;;;0.00;0.00;;;;;;;;;;4911554;29;20040;-60
2022/07/07 10:34:53;;;;;;;0.00;0.00;;;;;;;;;;4910626;29;20036;-60
2022/07/07 10:37:18;;;;;;;0.00;0.00;;;;;;;;;;4912606;29;20378;-59
2022/07/07 10:39:45;;;;;;;0.00;0.00;;;;;;;;;;4916819;29;20035;-60
2022/07/07 10:42:17;;;;;;;0.00;0.00;;;;;;;;;;4916250;29;20450;-60
2022/07/07 10:44:49;;;;;;;0.00;0.00;;;;;;;;;;4916335;29;20024;-60
2022/07/07 10:47:17;;;;;;;0.00;0.00;;;;;;;;;;4914356;29;20020;-60
2022/07/07 10:49:47;;;;;;;0.00;0.00;;;;;;;;;;4915802;29;20027;-60
2022/07/07 10:52:19;;;;;;;0.00;0.00;;;;;;;;;;4916181;29;20039;-58
2022/07/07 10:54:44;;;;;;;0.00;0.00;;;;;;;;;;4915465;29;20028;-59
2022/07/07 10:57:14;;;;;;;0.00;0.00;;;;;;;;;;4916134;29;20454;-59
2022/07/07 11:00:04;;;;;;;0.00;0.00;;;;;;;;;;4915405;29;20079;-59
2022/07/07 11:02:30;;;;;;;0.00;0.00;;;;;;;;;;4914996;29;20039;-59
2022/07/07 11:04:55;;;;;;;0.00;0.00;;;;;;;;;;4915087;29;20036;-59
2022/07/07 11:07:22;;;;;;;0.00;0.00;;;;;;;;;;4914694;29;20782;-59
2022/07/07 11:10:00;;;;;;;0.00;0.00;;;;;;;;;;4915667;29;20056;-59
2022/07/07 11:12:37;;;;;;;0.00;0.00;;;;;;;;;;4914817;29;20060;-59
2022/07/07 11:15:15;;;;;;;0.00;0.00;;;;;;;;;;4912026;29;20031;-59
2022/07/07 11:17:48;;;;;;;0.10;0.10;;;;;;;;;;4914609;29;20031;-58
2022/07/07 11:20:14;;;;;;;0.25;0.25;;;;;;;;;;4914036;29;20035;-59
2022/07/07 11:22:49;;;;;;;0.20;0.20;;;;;;;;;;4912927;29;20028;-59
2022/07/07 11:25:18;;;;;;;0.00;0.00;;;;;;;;;;4915263;29;20049;-59
2022/07/07 11:27:44;;;;;;;0.10;0.10;;;;;;;;;;4915453;29;20020;-59
2022/07/07 11:30:09;;;;;;;0.00;0.00;;;;;;;;;;4915417;29;20050;-59
2022/07/07 11:32:38;;;;;;;0.00;0.00;;;;;;;;;;4912503;29;20081;-59
2022/07/07 11:35:07;;;;;;;0.00;0.00;;;;;;;;;;4913708;29;20470;-59
2022/07/07 11:37:33;;;;;;;;;;;;;;;;;;4896111;29;20131;-59
2022/07/07 11:39:58;;;;;;;0.00;0.00;;;;;;;;;;4915125;29;20001;-59
2022/07/07 11:42:24;;;;;;;0.00;0.00;;;;;;;;;;4914878;29;20024;-59
2022/07/07 11:44:49;;;;;;;0.20;0.10;;;;;;;;;;4914513;29;20043;-60
2022/07/07 11:47:15;;;;;;;0.00;0.00;;;;;;;;;;4914833;29;20032;-60
2022/07/07 11:49:40;;;;;;;0.05;0.05;;;;;;;;;;4914994;29;20028;-59
2022/07/07 11:52:06;;;;;;;0.10;0.10;;;;;;;;;;4915267;29;20040;-60
2022/07/07 11:54:31;;;;;;;0.00;0.00;;;;;;;;;;4914404;29;20028;-59
2022/07/07 11:56:56;;;;;;;0.10;0.10;;;;;;;;;;4915149;29;20028;-59
2022/07/07 11:59:22;;;;;;;0.75;0.75;;;;;;;;;;4912707;29;20024;-59
2022/07/07 12:01:50;;;;;;;0.00;0.00;;;;;;;;;;4909296;29;20066;-59
2022/07/07 12:04:22;;;;;;;0.00;0.00;;;;;;;;;;4909849;29;20034;-59
2022/07/07 12:06:47;;;;;;;0.55;0.55;;;;;;;;;;4912769;29;20032;-59
2022/07/07 12:09:13;;;;;;;1.45;1.38;;;;;;;;;;4912413;29;20024;-60
2022/07/07 12:11:41;;;;;;;0.10;0.10;;;;;;;;;;4910168;29;20043;-59
2022/07/07 12:14:08;;;;;;;1.35;1.25;;;;;;;;;;4910098;29;20064;-59
2022/07/07 12:16:42;;;;;;;0.95;0.95;;;;;;;;;;4912876;29;20067;-59
2022/07/07 12:19:09;;;;;;;0.00;0.00;;;;;;;;;;4911476;29;20088;-58
2022/07/07 12:21:52;;;;;;;0.00;0.00;;;;;;;;;;4913499;29;20039;-59
2022/07/07 12:24:21;;;;;;;0.05;0.03;;;;;;;;;;4909740;29;20024;-59
2022/07/07 12:26:49;;;;;;;3.50;0.37;;;;;;;;;;4911881;29;20161;-60
2022/07/07 12:29:15;;;;;;;0.10;0.10;;;;;;;;;;4911590;29;20156;-60
2022/07/07 12:31:41;;;;;;;1.23;0.20;;;;;;;;;;4913071;29;20492;-61
2022/07/07 12:34:10;;;;;;;0.55;0.55;;;;;;;;;;4915661;29;20099;-61
2022/07/07 12:36:35;;;;;;;0.10;0.10;;;;;;;;;;4915057;29;20132;-60
2022/07/07 12:39:03;;;;;;;0.85;0.55;;;;;;;;;;4914736;29;20119;-60
2022/07/07 12:41:32;;;;;;;4.18;0.28;;;;;;;;;;4914632;29;20477;-60
2022/07/07 12:43:58;;;;;;;;;;;;;;;;;;4913773;29;20390;-60
2022/07/07 12:46:33;;;;;;;0.00;0.00;;;;;;;;;;4915057;29;19918;-60
2022/07/07 12:48:59;;;;;;;0.10;0.10;;;;;;;;;;4914826;29;20478;-60
2022/07/07 12:51:28;;;;;;;0.00;0.00;;;;;;;;;;4914314;29;20024;-60
2022/07/07 12:53:54;;;;;;;0.20;0.20;;;;;;;;;;4914375;29;20094;-60
2022/07/07 12:56:19;;;;;;;0.20;0.20;;;;;;;;;;4914087;29;20486;-60
2022/07/07 12:58:46;;;;;;;0.10;0.10;;;;;;;;;;4913491;29;20072;-60
2022/07/07 13:01:13;;;;;;;0.20;0.20;;;;;;;;;;4913795;29;20024;-60
2022/07/07 13:03:38;;;;;;;0.03;0.03;;;;;;;;;;4914100;29;20051;-60
2022/07/07 13:06:04;;;;;;;0.20;0.15;;;;;;;;;;4913983;29;20471;-57
2022/07/07 13:08:29;;;;;;;0.00;0.00;;;;;;;;;;4913780;29;20163;-59
2022/07/07 13:10:54;;;;;;;0.00;0.00;;;;;;;;;;4914407;29;20027;-61
2022/07/07 13:13:19;;;;;;;0.30;0.10;;;;;;;;;;4913396;29;20472;-63
2022/07/07 13:15:45;;;;;;;0.20;0.20;;;;;;;;;;4913827;29;20028;-60
2022/07/07 13:18:19;;;;;;;0.10;0.10;;;;;;;;;;4912759;29;20139;-61
2022/07/07 13:20:45;;;;;;;0.00;0.00;;;;;;;;;;4912833;29;20039;-61
2022/07/07 13:23:11;;;;;;;0.00;0.00;;;;;;;;;;4912307;29;20024;-61
2022/07/07 13:25:36;;;;;;;0.00;0.00;;;;;;;;;;4912477;29;20482;-61
2022/07/07 13:28:02;;;;;;;0.20;0.10;;;;;;;;;;4912154;29;20024;-61
2022/07/07 13:30:30;;;;;;;0.10;0.00;;;;;;;;;;4912494;29;20272;-61
2022/07/07 13:32:58;;;;;;;0.00;0.00;;;;;;;;;;4911356;29;20099;-61
2022/07/07 13:35:24;;;;;;;0.10;0.10;;;;;;;;;;4912378;29;20032;-60
2022/07/07 13:37:49;;;;;;;0.17;0.17;;;;;;;;;;4913017;29;20028;-61
2022/07/07 13:40:15;;;;;;;0.00;0.00;;;;;;;;;;4913264;29;20818;-60
2022/07/07 13:42:40;;;;;;;0.80;0.80;;;;;;;;;;4913257;29;20091;-61
2022/07/07 13:45:06;;;;;;;0.30;0.30;;;;;;;;;;4912802;29;20024;-62
2022/07/07 13:47:31;;;;;;;0.00;0.00;;;;;;;;;;4912380;29;20063;-62
2022/07/07 13:49:59;;;;;;;1.08;0.45;;;;;;;;;;4911105;29;20024;-61
2022/07/07 13:52:24;;;;;;;0.35;0.35;;;;;;;;;;4912465;29;20056;-61
2022/07/07 13:54:49;;;;;;;0.10;0.10;;;;;;;;;;4913582;29;20028;-61
2022/07/07 13:57:15;;;;;;;0.10;0.10;;;;;;;;;;4911162;29;20031;-61
2022/07/07 13:59:41;;;;;;;0.00;0.00;;;;;;;;;;4912599;29;20023;-61
2022/07/07 14:02:06;;;;;;;0.10;0.10;;;;;;;;;;4894403;29;20028;-61
2022/07/07 14:04:31;;;;;;;0.00;0.00;;;;;;;;;;4912016;29;20115;-59
2022/07/07 14:06:57;;;;;;;0.00;0.00;;;;;;;;;;4912900;29;20040;-62
2022/07/07 14:09:22;;;;;;;0.00;0.00;;;;;;;;;;4909741;29;20032;-63
2022/07/07 14:11:48;;;;;;;0.00;0.00;;;;;;;;;;4912386;29;20036;-62
2022/07/07 14:14:13;;;;;;;0.00;0.00;;;;;;;;;;4912723;29;20024;-62
2022/07/07 14:16:38;;;;;;;0.00;0.00;;;;;;;;;;4911893;29;20450;-63
2022/07/07 14:19:03;;;;;;;0.00;0.00;;;;;;;;;;4911047;29;20257;-62
2022/07/07 14:21:28;;;;;;;0.00;0.00;;;;;;;;;;4909309;29;20035;-63
2022/07/07 14:23:54;;;;;;;0.20;0.20;;;;;;;;;;4911182;29;20280;-63
2022/07/07 14:26:19;;;;;;;0.00;0.00;;;;;;;;;;4909969;29;20024;-62
2022/07/07 14:28:44;;;;;;;1.92;1.00;;;;;;;;;;4910926;29;20486;-62
2022/07/07 14:31:09;;;;;;;0.03;0.03;;;;;;;;;;4909917;29;20036;-62
2022/07/07 14:33:35;;;;;;;1.17;0.82;;;;;;;;;;4909485;29;20100;-62
2022/07/07 14:36:00;;;;;;;0.00;0.00;;;;;;;;;;4912354;29;20043;-62
2022/07/07 14:38:25;;;;;;;0.00;0.00;;;;;;;;;;4911924;29;20035;-63
2022/07/07 14:40:51;;;;;;;0.00;0.00;;;;;;;;;;4912388;29;20040;-62
2022/07/07 14:43:16;;;;;;;0.88;0.40;;;;;;;;;;4912529;29;20035;-61
2022/07/07 14:45:42;;;;;;;0.05;0.05;;;;;;;;;;4912184;29;20489;-63